Terminal Aerodrome Forecast
Issued by NWS Norman, OK

Home | Current Version | Previous Version | Text Only | Print | Product List | Glossary On
Versions: 1 2 3 4 5 6 7 8 9 10 11 12 13 14
000
FTUS44 KOUN 191743
TAFSPS
TAF
KSPS 191743Z 1918/2018 20018G28KT P6SM SCT120
     FM200000 18017KT P6SM BKN035
      TEMPO 2001/2005 3SM -TSRA BR BKN015CB
     FM201000 17013KT 5SM BR OVC015=

USA.gov is the U.S. government's official web portal to all federal, state and local government web resources and services.